Time;durP1;ratioP1;P1;durP2;ratioP2;P2;SDS_P1;SDS_P2;PMS_P1;PMS_P2;Temp;Humidity;BMP_temperature;BMP_pressure;BME280_temperature;BME280_humidity;BME280_pressure;Samples;Min_cycle;Max_cycle;Signal;HPM_P1;HPM_P2
2023/07/24 00:02:23;;;;;;;;;;;;;;;27.56;44.63;99667.38;5054839;28;19908;-79
2023/07/24 00:04:48;;;;;;;;;;;;;;;27.53;45.67;99666.84;5036787;28;19919;-79
2023/07/24 00:07:13;;;;;;;;;;;;;;;27.50;47.54;99666.59;5054741;28;19930;-79
2023/07/24 00:09:38;;;;;;;;;;;;;;;27.38;48.73;99661.53;5054267;28;19913;-79
2023/07/24 00:12:04;;;;;;;;;;;;;;;27.32;47.33;99664.59;5036727;28;20395;-79
2023/07/24 00:14:29;;;;;;;;;;;;;;;27.23;46.58;99670.63;5036762;28;19909;-79
2023/07/24 00:16:54;;;;;;;;;;;;;;;27.14;50.96;99664.19;5054449;28;19915;-78
2023/07/24 00:19:20;;;;;;;;;;;;;;;27.14;50.04;99663.38;5054058;28;20388;-78
2023/07/24 00:21:45;;;;;;;;;;;;;;;27.17;49.06;99670.97;5054118;28;19961;-78
2023/07/24 00:24:10;;;;;;;;;;;;;;;27.18;46.96;99662.53;5054722;28;19908;-77
2023/07/24 00:26:36;;;;;;;;;;;;;;;27.19;49.16;99663.34;5036810;28;19909;-79
2023/07/24 00:29:01;;;;;;;;;;;;;;;27.11;49.37;99661.25;5053208;28;20013;-79
2023/07/24 00:31:27;;;;;;;;;;;;;;;27.04;48.14;99652.63;5053803;28;19955;-80
2023/07/24 00:33:52;;;;;;;;;;;;;;;26.96;49.95;99659.44;5053559;28;19919;-79
2023/07/24 00:36:17;;;;;;;;;;;;;;;26.95;49.24;99665.94;5053483;28;19932;-79
2023/07/24 00:38:42;;;;;;;;;;;;;;;26.93;50.80;99660.00;5053294;28;19917;-80
2023/07/24 00:41:08;;;;;;;;;;;;;;;26.86;52.36;99660.31;5053304;28;19947;-80
2023/07/24 00:43:33;;;;;;;;;;;;;;;26.91;52.27;99665.72;5053851;28;19931;-78
2023/07/24 00:45:58;;;;;;;;;;;;;;;26.97;51.93;99666.47;5036292;28;19909;-77
2023/07/24 00:48:24;;;;;;;;;;;;;;;26.92;52.89;99666.50;5053929;28;19908;-78
2023/07/24 00:50:49;;;;;;;;;;;;;;;26.90;52.16;99666.81;5054038;28;19920;-78
2023/07/24 00:53:15;;;;;;;;;;;;;;;26.87;56.40;99664.66;5035958;28;19909;-76
2023/07/24 00:55:41;;;;;;;;;;;;;;;26.88;52.47;99662.75;5053861;28;19915;-78
2023/07/24 00:58:06;;;;;;;;;;;;;;;26.75;55.40;99660.66;5035401;28;20011;-78
2023/07/24 01:00:32;;;;;;;;;;;;;;;26.72;56.10;99672.84;5053723;28;19995;-79
2023/07/24 01:02:59;;;;;;;;;;;;;;;26.72;56.26;99666.63;5053781;28;19909;-79
2023/07/24 01:05:25;;;;;;;;;;;;;;;26.69;54.26;99668.00;5035583;28;19940;-78
2023/07/24 01:07:50;;;;;;;;;;;;;;;26.70;54.31;99666.09;5035492;28;19909;-78
2023/07/24 01:10:16;;;;;;;;;;;;;;;26.63;57.42;99660.19;5053666;28;19920;-77
2023/07/24 01:12:41;;;;;;;;;;;;;;;26.65;52.06;99664.25;5053225;28;19909;-78
2023/07/24 01:15:14;;;;;;;;;;;;;;;26.68;57.42;99660.97;5035469;28;19996;-77
2023/07/24 01:17:42;;;;;;;;;;;;;;;26.68;54.57;99660.97;5053254;28;19915;-77
2023/07/24 01:20:08;;;;;;;;;;;;;;;26.71;50.96;99651.47;5053299;28;19909;-78
2023/07/24 01:22:48;;;;;;;;;;;;;;;26.68;53.29;99655.56;5053077;28;19909;-78
2023/07/24 01:25:16;;;;;;;;;;;;;;;26.58;56.98;99655.63;5053427;28;19909;-77
2023/07/24 01:27:42;;;;;;;;;;;;;;;26.58;55.23;99663.75;5035560;28;19977;-78
2023/07/24 01:30:08;;;;;;;;;;;;;;;26.59;57.02;99668.88;5053086;28;19916;-78
2023/07/24 01:32:33;;;;;;;;;;;;;;;26.59;58.65;99666.16;5053200;28;19908;-79
2023/07/24 01:34:59;;;;;;;;;;;;;;;26.60;57.36;99669.69;5052982;28;19908;-78
2023/07/24 01:37:25;;;;;;;;;;;;;;;26.58;56.80;99663.75;5053025;28;19912;-78
2023/07/24 01:39:50;;;;;;;;;;;;;;;26.52;58.48;99667.56;5052189;28;19931;-78
2023/07/24 01:42:16;;;;;;;;;;;;;;;26.42;59.17;99671.16;5052439;28;20370;-77
2023/07/24 01:44:41;;;;;;;;;;;;;;;26.42;58.89;99667.63;5052030;28;19909;-80
2023/07/24 01:47:07;;;;;;;;;;;;;;;26.38;57.08;99666.56;5034029;28;20398;-79
2023/07/24 01:49:32;;;;;;;;;;;;;;;26.42;56.97;99667.63;5052056;28;19964;-77
2023/07/24 01:51:57;;;;;;;;;;;;;;;26.47;54.54;99670.31;5051763;28;19952;-79
2023/07/24 01:54:23;;;;;;;;;;;;;;;26.52;55.46;99676.50;5051957;28;20411;-79
2023/07/24 01:56:48;;;;;;;;;;;;;;;26.52;56.57;99676.50;5051951;28;19919;-79
2023/07/24 01:59:13;;;;;;;;;;;;;;;26.52;53.48;99665.69;5053442;28;19924;-79
2023/07/24 02:01:38;;;;;;;;;;;;;;;26.53;53.21;99670.00;5053617;28;19916;-78
2023/07/24 02:04:04;;;;;;;;;;;;;;;26.51;56.58;99672.19;5052673;28;20377;-77
2023/07/24 02:06:29;;;;;;;;;;;;;;;26.51;55.33;99683.00;5052940;28;19909;-78
2023/07/24 02:08:54;;;;;;;;;;;;;;;26.53;55.70;99680.84;5053067;28;20377;-78
2023/07/24 02:11:20;;;;;;;;;;;;;;;26.55;55.99;99678.66;5052392;28;19913;-78
2023/07/24 02:13:45;;;;;;;;;;;;;;;26.54;57.53;99676.22;5052176;28;19944;-78
2023/07/24 02:16:11;;;;;;;;;;;;;;;26.51;57.03;99679.50;5052495;28;19912;-78
2023/07/24 02:18:37;;;;;;;;;;;;;;;26.51;54.73;99674.88;5052853;28;19916;-77
2023/07/24 02:21:02;;;;;;;;;;;;;;;26.53;54.86;99675.41;5052832;28;19932;-78
2023/07/24 02:23:27;;;;;;;;;;;;;;;26.51;56.67;99671.38;5037859;28;20359;-79
2023/07/24 02:25:53;;;;;;;;;;;;;;;26.46;56.31;99674.91;5053825;28;19913;-78
2023/07/24 02:28:18;;;;;;;;;;;;;;;26.40;55.18;99669.81;5052257;28;19943;-79
2023/07/24 02:30:43;;;;;;;;;;;;;;;26.37;55.43;99664.94;5051531;28;19912;-79
2023/07/24 02:33:08;;;;;;;;;;;;;;;26.37;57.77;99670.38;5033779;28;20378;-78
2023/07/24 02:35:40;;;;;;;;;;;;;;;26.35;57.59;99675.25;5051826;28;19909;-78
2023/07/24 02:38:06;;;;;;;;;;;;;;;26.43;54.31;99680.06;5051477;28;19915;-78
2023/07/24 02:40:31;;;;;;;;;;;;;;;26.35;58.19;99676.06;5051483;28;19909;-79
2023/07/24 02:42:56;;;;;;;;;;;;;;;26.32;57.34;99683.91;5051461;28;19904;-78
2023/07/24 02:45:21;;;;;;;;;;;;;;;26.08;61.05;99668.31;5051500;28;19909;-78
2023/07/24 02:47:47;;;;;;;;;;;;;;;26.00;59.38;99682.38;5051378;28;20453;-78
2023/07/24 02:50:12;;;;;;;;;;;;;;;26.00;58.57;99676.16;5051418;28;19909;-78
2023/07/24 02:52:37;;;;;;;;;;;;;;;26.02;58.37;99676.72;5053785;28;19916;-80
2023/07/24 02:55:02;;;;;;;;;;;;;;;26.03;58.02;99679.16;5055196;28;19908;-78
2023/07/24 02:57:28;;;;;;;;;;;;;;;26.03;59.30;99673.72;5055100;28;20321;-79
2023/07/24 02:59:53;;;;;;;;;;;;;;;26.00;58.74;99671.56;5055380;28;19915;-78
2023/07/24 03:02:18;;;;;;;;;;;;;;;26.01;56.29;99672.34;5055251;28;19913;-78
2023/07/24 03:04:43;;;;;;;;;;;;;;;26.07;57.63;99679.41;5054839;28;20399;-79
2023/07/24 03:07:09;;;;;;;;;;;;;;;26.09;58.58;99679.94;5055020;28;19999;-79
2023/07/24 03:09:34;;;;;;;;;;;;;;;26.10;56.13;99676.94;5055048;28;19909;-79
2023/07/24 03:11:59;;;;;;;;;;;;;;;26.08;55.58;99681.03;5054952;28;19920;-79
2023/07/24 03:14:25;;;;;;;;;;;;;;;25.98;61.16;99679.13;5055118;28;19995;-79
2023/07/24 03:16:51;;;;;;;;;;;;;;;25.91;58.51;99679.44;5055487;28;20305;-78
2023/07/24 03:19:17;;;;;;;;;;;;;;;25.90;57.73;99674.28;5055588;28;19966;-78
2023/07/24 03:21:42;;;;;;;;;;;;;;;25.85;59.76;99685.13;5055320;28;20000;-79
2023/07/24 03:24:08;;;;;;;;;;;;;;;25.87;60.28;99681.06;5037333;28;19951;-77
2023/07/24 03:26:33;;;;;;;;;;;;;;;25.87;57.60;99682.97;5055384;28;19915;-77
2023/07/24 03:28:59;;;;;;;;;;;;;;;25.77;60.17;99677.56;5054989;28;19947;-78
2023/07/24 03:31:24;;;;;;;;;;;;;;;25.78;58.01;99679.19;5055441;28;19912;-77
2023/07/24 03:33:50;;;;;;;;;;;;;;;25.81;57.89;99670.53;5055575;28;20279;-79
2023/07/24 03:36:15;;;;;;;;;;;;;;;25.84;57.62;99669.97;5055188;28;20012;-77
2023/07/24 03:38:40;;;;;;;;;;;;;;;25.86;57.63;99652.38;5037755;28;19913;-77
2023/07/24 03:41:05;;;;;;;;;;;;;;;25.85;61.23;99664.28;5055234;28;20391;-78
2023/07/24 03:43:30;;;;;;;;;;;;;;;25.84;56.29;99661.88;5037202;28;19913;-78
2023/07/24 03:45:56;;;;;;;;;;;;;;;25.92;59.18;99664.00;5037288;28;19916;-79
2023/07/24 03:48:21;;;;;;;;;;;;;;;25.94;59.39;99669.94;5055275;28;20043;-79
2023/07/24 03:50:46;;;;;;;;;;;;;;;26.00;57.12;99665.31;5055108;28;19912;-76
2023/07/24 03:53:11;;;;;;;;;;;;;;;26.01;60.05;99670.50;5054680;28;19937;-78
2023/07/24 03:55:37;;;;;;;;;;;;;;;26.05;57.67;99666.16;5055040;28;19931;-78
2023/07/24 03:58:02;;;;;;;;;;;;;;;26.04;59.31;99663.72;5054634;28;19916;-78
2023/07/24 04:00:27;;;;;;;;;;;;;;;26.04;57.51;99663.72;5054110;28;20431;-78
2023/07/24 04:02:54;;;;;;;;;;;;;;;26.00;59.43;99658.03;5053398;28;19928;-78
2023/07/24 04:05:19;;;;;;;;;;;;;;;25.95;57.93;99661.56;5053776;28;19908;-78
2023/07/24 04:07:44;;;;;;;;;;;;;;;25.95;56.37;99666.16;5054328;28;20400;-78
2023/07/24 04:10:09;;;;;;;;;;;;;;;25.91;60.56;99668.59;5053884;28;19908;-78
2023/07/24 04:12:35;;;;;;;;;;;;;;;25.82;60.58;99674.84;5036085;28;20394;-78
2023/07/24 04:15:00;;;;;;;;;;;;;;;25.82;59.13;99674.84;5054119;28;19962;-78
2023/07/24 04:17:25;;;;;;;;;;;;;;;25.83;57.49;99669.16;5053829;28;19941;-78
2023/07/24 04:19:50;;;;;;;;;;;;;;;25.89;60.29;99675.38;5053914;28;20370;-78
2023/07/24 04:22:16;;;;;;;;;;;;;;;25.95;56.06;99674.28;5053705;28;19986;-79
2023/07/24 04:24:41;;;;;;;;;;;;;;;25.96;57.11;99671.28;5035762;28;19916;-77
2023/07/24 04:27:06;;;;;;;;;;;;;;;26.01;57.67;99685.88;5053631;28;19916;-78
2023/07/24 04:29:31;;;;;;;;;;;;;;;25.90;60.35;99679.69;5053631;28;20415;-78
2023/07/24 04:31:57;;;;;;;;;;;;;;;25.92;60.79;99682.94;5035590;28;19912;-76
2023/07/24 04:34:22;;;;;;;;;;;;;;;25.88;60.21;99676.47;5053545;28;19912;-77
2023/07/24 04:36:47;;;;;;;;;;;;;;;25.89;60.01;99678.09;5053557;28;19912;-77
2023/07/24 04:39:12;;;;;;;;;;;;;;;25.91;59.99;99676.72;5053474;28;20370;-78
2023/07/24 04:41:38;;;;;;;;;;;;;;;25.91;61.18;99687.53;5035404;28;19919;-78
2023/07/24 04:44:03;;;;;;;;;;;;;;;25.96;60.15;99687.53;5035463;28;19958;-78
2023/07/24 04:46:28;;;;;;;;;;;;;;;26.03;60.17;99689.16;5053380;28;20306;-79
2023/07/24 04:48:53;;;;;;;;;;;;;;;26.07;59.24;99691.03;5035212;28;20007;-79
2023/07/24 04:51:19;;;;;;;;;;;;;;;26.08;61.08;99697.25;5052836;28;19967;-78
2023/07/24 04:53:44;;;;;;;;;;;;;;;26.15;58.28;99703.19;5052843;28;19912;-79
2023/07/24 04:56:10;;;;;;;;;;;;;;;26.16;58.50;99696.69;5052883;28;20304;-79
2023/07/24 04:58:35;;;;;;;;;;;;;;;26.19;56.25;99702.34;5035444;28;19916;-78
2023/07/24 05:01:04;;;;;;;;;;;;;;;26.15;57.20;99701.28;5053710;28;20401;-78
2023/07/24 05:03:29;;;;;;;;;;;;;;;26.15;57.75;99711.31;5053906;28;19915;-78
2023/07/24 05:05:55;;;;;;;;;;;;;;;26.07;59.25;99704.56;5053793;28;20306;-79
2023/07/24 05:08:21;;;;;;;;;;;;;;;26.05;59.24;99717.56;5056643;28;19908;-78
2023/07/24 05:10:46;;;;;;;;;;;;;;;26.03;58.61;99706.19;5056155;28;19920;-78
2023/07/24 05:13:11;;;;;;;;;;;;;;;25.95;60.24;99704.03;5053861;28;19915;-79
2023/07/24 05:15:37;;;;;;;;;;;;;;;25.93;59.22;99709.72;5034552;28;19908;-76
2023/07/24 05:18:02;;;;;;;;;;;;;;;26.06;60.35;99710.25;5052754;28;19920;-79
2023/07/24 05:20:28;;;;;;;;;;;;;;;26.14;58.92;99715.09;5052472;28;19920;-79
2023/07/24 05:22:53;;;;;;;;;;;;;;;26.19;58.60;99715.88;5034439;28;19995;-77
2023/07/24 05:25:18;;;;;;;;;;;;;;;26.25;58.08;99722.09;5052328;28;19912;-79
2023/07/24 05:27:43;;;;;;;;;;;;;;;26.27;57.40;99730.75;5052477;28;19913;-78
2023/07/24 05:30:09;;;;;;;;;;;;;;;26.31;57.60;99726.41;5052516;28;19959;-78
2023/07/24 05:32:34;;;;;;;;;;;;;;;26.26;58.32;99729.13;5052410;28;19960;-79
2023/07/24 05:34:59;;;;;;;;;;;;;;;26.21;58.39;99727.25;5034270;28;19909;-79
2023/07/24 05:37:24;;;;;;;;;;;;;;;26.20;57.89;99731.03;5052045;28;19915;-79
2023/07/24 05:39:51;;;;;;;;;;;;;;;26.14;59.45;99724.03;5051799;28;20332;-79
2023/07/24 05:42:16;;;;;;;;;;;;;;;26.19;57.08;99723.19;5051952;28;19916;-79
2023/07/24 05:44:41;;;;;;;;;;;;;;;26.24;58.33;99721.28;5034338;28;19913;-78
2023/07/24 05:47:06;;;;;;;;;;;;;;;26.30;58.74;99727.50;5052349;28;20352;-78
2023/07/24 05:49:32;;;;;;;;;;;;;;;26.34;58.38;99730.47;5052376;28;19955;-78
2023/07/24 05:51:57;;;;;;;;;;;;;;;26.45;57.13;99735.56;5052160;28;20506;-78
2023/07/24 05:54:22;;;;;;;;;;;;;;;26.55;57.63;99732.00;5052223;28;19912;-78
2023/07/24 05:56:47;;;;;;;;;;;;;;;26.58;57.36;99726.03;5052112;28;19913;-78
2023/07/24 05:59:13;;;;;;;;;;;;;;;26.66;55.24;99735.47;5034071;28;19924;-78
2023/07/24 06:01:38;;;;;;;;;;;;;;;26.71;57.95;99738.16;5034238;28;19908;-78
2023/07/24 06:04:05;;;;;;;;;;;;;;;26.66;58.11;99733.56;5052013;28;20046;-78
2023/07/24 06:06:30;;;;;;;;;;;;;;;26.64;56.62;99729.53;5051929;28;20370;-78
2023/07/24 06:08:55;;;;;;;;;;;;;;;26.65;57.20;99721.13;5033640;28;19912;-78
2023/07/24 06:11:20;;;;;;;;;;;;;;;26.68;58.88;99720.56;5051584;28;20368;-78
2023/07/24 06:13:46;;;;;;;;;;;;;;;26.72;58.04;99723.53;5051928;28;19912;-78
2023/07/24 06:16:13;;;;;;;;;;;;;;;26.79;55.50;99724.03;5051855;28;20022;-78
2023/07/24 06:18:39;;;;;;;;;;;;;;;26.87;56.75;99726.16;5049543;28;19968;-78
2023/07/24 06:21:04;;;;;;;;;;;;;;;26.87;56.58;99723.44;5033425;28;19963;-77
2023/07/24 06:23:29;;;;;;;;;;;;;;;26.93;56.48;99722.31;5049664;28;19912;-77
2023/07/24 06:25:55;;;;;;;;;;;;;;;27.11;57.24;99716.25;5049985;28;20356;-77
2023/07/24 06:28:20;;;;;;;;;;;;;;;27.24;55.47;99717.53;5047682;28;19962;-78
2023/07/24 06:30:45;;;;;;;;;;;;;;;27.31;56.24;99718.00;5032665;28;19921;-78
2023/07/24 06:33:11;;;;;;;;;;;;;;;27.44;55.43;99708.41;5049472;28;19913;-78
2023/07/24 06:35:36;;;;;;;;;;;;;;;27.62;54.96;99713.19;5042643;28;19951;-78
2023/07/24 06:38:01;;;;;;;;;;;;;;;27.72;54.48;99710.34;5038116;28;19912;-78
2023/07/24 06:40:27;;;;;;;;;;;;;;;27.73;54.85;99705.75;5045985;28;20373;-76
2023/07/24 06:42:52;;;;;;;;;;;;;;;27.69;54.88;99710.13;5039239;28;19924;-77
2023/07/24 06:45:18;;;;;;;;;;;;;;;27.67;54.74;99709.59;5041751;28;19917;-77
2023/07/24 06:47:43;;;;;;;;;;;;;;;27.69;54.75;99713.66;5046582;28;19974;-76
2023/07/24 06:50:08;;;;;;;;;;;;;;;27.72;55.35;99709.56;5050009;28;19915;-79
2023/07/24 06:52:34;;;;;;;;;;;;;;;27.72;54.93;99712.25;5043239;28;19912;-78
2023/07/24 06:54:59;;;;;;;;;;;;;;;27.68;54.53;99706.59;5039269;28;20078;-78
2023/07/24 06:57:24;;;;;;;;;;;;;;;27.62;55.01;99709.66;5049017;28;19943;-78
2023/07/24 06:59:50;;;;;;;;;;;;;;;27.62;54.48;99701.50;5051208;28;20390;-78
2023/07/24 07:02:15;;;;;;;;;;;;;;;27.63;55.51;99705.84;5051160;28;19919;-78
2023/07/24 07:04:40;;;;;;;;;;;;;;;27.65;54.63;99696.31;5050470;28;19912;-77
2023/07/24 07:07:06;;;;;;;;;;;;;;;27.11;54.88;99613.28;5049906;28;19917;-78
2023/07/24 07:09:31;;;;;;;;;;;;;;;27.72;55.50;99699.50;5050855;28;20313;-77
2023/07/24 07:11:56;;;;;;;;;;;;;;;27.64;56.27;99697.41;5050377;28;20003;-76
2023/07/24 07:14:21;;;;;;;;;;;;;;;27.62;56.84;99701.50;5047248;28;19993;-79
2023/07/24 07:16:47;;;;;;;;;;;;;;;27.62;55.44;99699.63;5047840;28;19927;-78
2023/07/24 07:19:12;;;;;;;;;;;;;;;27.67;55.00;99699.56;5036323;28;20326;-78
2023/07/24 07:21:38;;;;;;;;;;;;;;;27.74;55.25;99693.78;5040156;28;19951;-77
2023/07/24 07:24:03;;;;;;;;;;;;;;;27.83;56.51;99692.06;5032515;28;19970;-77
2023/07/24 07:26:29;;;;;;;;;;;;;;;27.75;55.71;99693.50;5050895;28;19909;-76
2023/07/24 07:28:54;;;;;;;;;;;;;;;27.86;55.15;99686.06;5048501;28;19935;-75
2023/07/24 07:31:20;;;;;;;;;;;;;;;28.03;53.25;99682.88;5051235;28;20377;-76
2023/07/24 07:33:45;;;;;;;;;;;;;;;28.11;55.21;99674.91;5051273;28;19916;-78
2023/07/24 07:36:11;;;;;;;;;;;;;;;28.19;54.50;99676.16;5033392;28;19959;-77
2023/07/24 07:38:39;;;;;;;;;;;;;;;28.18;55.02;99679.97;5049801;28;20025;-78
2023/07/24 07:41:05;;;;;;;;;;;;;;;28.16;54.81;99674.03;5049253;28;19913;-77
2023/07/24 07:43:30;;;;;;;;;;;;;;;28.24;54.73;99676.16;5052308;28;19999;-78
2023/07/24 07:45:56;;;;;;;;;;;;;;;28.33;54.19;99673.59;5051067;28;20433;-78
2023/07/24 07:48:21;;;;;;;;;;;;;;;28.43;55.11;99668.84;5045709;28;19912;-79
2023/07/24 07:50:49;;;;;;;;;;;;;;;28.50;52.86;99670.38;5042145;28;20401;-79
2023/07/24 07:53:15;;;;;;;;;;;;;;;28.44;53.95;99665.03;5051943;28;19913;-76
2023/07/24 07:55:40;;;;;;;;;;;;;;;28.57;53.50;99668.13;5053431;28;19913;-78
2023/07/24 07:58:05;;;;;;;;;;;;;;;28.73;51.55;99667.59;5053817;28;19955;-78
2023/07/24 08:00:30;;;;;;;;;;;;;;;28.80;51.73;99670.75;5053772;28;20447;-77
2023/07/24 08:02:56;;;;;;;;;;;;;;;28.89;51.76;99678.25;5054078;28;19915;-78
2023/07/24 08:05:21;;;;;;;;;;;;;;;28.95;50.56;99667.00;5053787;28;19908;-77
2023/07/24 08:07:46;;;;;;;;;;;;;;;29.04;50.80;99664.47;5053570;28;20374;-77
2023/07/24 08:10:14;;;;;;;;;;;;;;;29.08;51.14;99668.19;5052316;28;19913;-78
2023/07/24 08:12:40;;;;;;;;;;;;;;;29.16;50.36;99647.66;5053230;28;19919;-79
2023/07/24 08:15:05;;;;;;;;;;;;;;;29.19;50.59;99649.78;5045563;28;20036;-78
2023/07/24 08:17:30;;;;;;;;;;;;;;;29.27;50.29;99652.63;5044179;28;20455;-79
2023/07/24 08:19:56;;;;;;;;;;;;;;;29.36;50.40;99650.84;5053536;28;19908;-79
2023/07/24 08:22:22;;;;;;;;;;;;;;;29.52;50.48;99648.69;5035990;28;19919;-79
2023/07/24 08:24:50;;;;;;;;;;;;;;;29.68;49.34;99643.75;5052671;28;19912;-78
2023/07/24 08:27:15;;;;;;;;;;;;;;;29.71;49.62;99646.66;5046020;28;19920;-77
2023/07/24 08:29:40;;;;;;;;;;;;;;;29.93;48.88;99651.44;5052495;28;19935;-78
2023/07/24 08:32:06;;;;;;;;;;;;;;;29.93;49.23;99645.19;5053149;28;19921;-77
2023/07/24 08:34:31;;;;;;;;;;;;;;;30.04;48.56;99641.97;5049275;28;19935;-78
2023/07/24 08:36:56;;;;;;;;;;;;;;;30.18;48.08;99636.50;5051282;28;19920;-75
2023/07/24 08:39:22;;;;;;;;;;;;;;;30.36;47.83;99621.94;5052722;28;20003;-76
2023/07/24 08:41:47;;;;;;;;;;;;;;;30.40;46.93;99630.31;5044050;28;19919;-76
2023/07/24 08:44:13;;;;;;;;;;;;;;;30.47;46.82;99619.81;5062859;28;19913;-78
2023/07/24 08:46:41;;;;;;;;;;;;;;;30.52;45.84;99621.63;5035423;28;19920;-77
2023/07/24 08:49:06;;;;;;;;;;;;;;;30.66;45.71;99619.69;5052437;28;19913;-77
2023/07/24 08:51:32;;;;;;;;;;;;;;;30.80;46.17;99623.16;5050800;28;20050;-78
2023/07/24 08:53:58;;;;;;;;;;;;;;;30.95;45.37;99619.25;5052713;28;19916;-77
2023/07/24 08:56:24;;;;;;;;;;;;;;;31.07;45.06;99614.03;5044962;28;19913;-77
2023/07/24 08:58:49;;;;;;;;;;;;;;;31.16;44.28;99609.47;5048768;28;19928;-76
2023/07/24 09:01:14;;;;;;;;;;;;;;;31.34;41.97;99610.38;5052731;28;19909;-77
2023/07/24 09:03:40;;;;;;;;;;;;;;;31.52;41.21;99612.06;5052830;28;20360;-77
2023/07/24 09:06:07;;;;;;;;;;;;;;;31.74;42.60;99607.66;5046101;28;19940;-78
2023/07/24 09:08:32;;;;;;;;;;;;;;;31.93;42.09;99608.19;5049583;28;20176;-77
2023/07/24 09:11:01;;;;;;;;;;;;;;;32.07;41.97;99603.44;5051456;28;20321;-77
2023/07/24 09:13:26;;;;;;;;;;;;;;;32.14;41.89;99602.97;5028596;28;19991;-80
2023/07/24 09:15:51;;;;;;;;;;;;;;;32.28;40.42;99598.19;5033056;28;20401;-77
2023/07/24 09:18:18;;;;;;;;;;;;;;;32.40;37.29;99594.81;5033772;28;19992;-79
2023/07/24 09:20:44;;;;;;;;;;;;;;;32.33;39.83;99591.75;5049116;28;19917;-78
2023/07/24 09:23:10;;;;;;;;;;;;;;;32.55;38.87;99594.31;5044806;28;19942;-76
2023/07/24 09:25:36;;;;;;;;;;;;;;;32.71;38.17;99581.00;5030205;28;19924;-76
2023/07/24 09:28:08;;;;;;;;;;;;;;;32.95;38.79;99585.97;5014678;28;20305;-77
2023/07/24 09:30:33;;;;;;;;;;;;;;;33.16;38.37;99584.94;5035112;28;20020;-78
2023/07/24 09:32:59;;;;;;;;;;;;;;;33.35;37.82;99587.31;5047380;28;19946;-77
2023/07/24 09:35:27;;;;;;;;;;;;;;;33.48;38.14;99586.31;5030539;28;20315;-77
2023/07/24 09:38:01;;;;;;;;;;;;;;;33.62;37.25;99588.03;5050630;28;19920;-76
2023/07/24 09:40:26;;;;;;;;;;;;;;;33.84;32.53;99578.75;5046151;28;19904;-76
2023/07/24 09:42:51;;;;;;;;;;;;;;;33.89;34.99;99573.06;5031038;28;19913;-76
2023/07/24 09:45:17;;;;;;;;;;;;;;;34.10;35.65;99563.72;5052075;28;19958;-77
2023/07/24 09:47:42;;;;;;;;;;;;;;;34.36;35.24;99565.53;5052264;28;19912;-77
2023/07/24 09:50:08;;;;;;;;;;;;;;;34.47;34.83;99560.41;5052205;28;19905;-77
2023/07/24 09:52:36;;;;;;;;;;;;;;;34.56;35.63;99559.19;5052037;28;19912;-77
2023/07/24 09:55:10;;;;;;;;;;;;;;;34.66;34.06;99563.47;5049160;28;20294;-77
2023/07/24 09:57:35;;;;;;;;;;;;;;;34.88;30.64;99559.56;5051298;28;20455;-76
2023/07/24 10:00:01;;;;;;;;;;;;;;;35.09;30.79;99554.03;5049992;28;19913;-76
2023/07/24 10:02:27;;;;;;;;;;;;;;;35.25;31.88;99552.22;5031221;28;19935;-74
2023/07/24 10:04:53;;;;;;;;;;;;;;;35.25;33.08;99544.78;5051753;28;19909;-76
2023/07/24 10:07:21;;;;;;;;;;;;;;;35.43;31.67;99541.84;5049764;28;19913;-77
2023/07/24 10:09:47;;;;;;;;;;;;;;;35.58;32.44;99544.69;5048271;28;19913;-78
2023/07/24 10:12:12;;;;;;;;;;;;;;;35.79;30.25;99530.03;5037867;28;20301;-79
2023/07/24 10:14:38;;;;;;;;;;;;;;;35.91;27.54;99528.09;5041364;28;20416;-77
2023/07/24 10:17:04;;;;;;;;;;;;;;;35.97;29.78;99523.94;5051163;28;19912;-76
2023/07/24 10:19:36;;;;;;;;;;;;;;;36.12;30.00;99516.13;5033546;28;19905;-77
2023/07/24 10:22:03;;;;;;;;;;;;;;;36.34;32.03;99518.34;5046852;28;19919;-76
2023/07/24 10:24:32;;;;;;;;;;;;;;;36.47;28.46;99510.88;5029683;28;19960;-77
2023/07/24 10:26:58;;;;;;;;;;;;;;;36.63;27.71;99519.94;5050567;28;19917;-77
2023/07/24 10:29:24;;;;;;;;;;;;;;;36.71;28.91;99521.75;5046917;28;19917;-78
2023/07/24 10:31:54;;;;;;;;;;;;;;;36.95;29.42;99511.75;5049709;28;19913;-78
2023/07/24 10:34:19;;;;;;;;;;;;;;;36.97;26.87;99503.94;5034308;28;19920;-78
2023/07/24 10:36:45;;;;;;;;;;;;;;;37.07;29.62;99509.72;5051605;28;20435;-77
2023/07/24 10:39:14;;;;;;;;;;;;;;;37.20;29.48;99505.75;5033130;28;19920;-76
2023/07/24 10:41:40;;;;;;;;;;;;;;;37.25;28.65;99504.69;5032991;28;20384;-78
2023/07/24 10:44:05;;;;;;;;;;;;;;;37.31;27.14;99495.00;5026906;28;19920;-78
2023/07/24 10:46:38;;;;;;;;;;;;;;;37.55;26.71;99485.72;5046452;28;19908;-76
2023/07/24 10:49:03;;;;;;;;;;;;;;;37.69;24.58;99488.81;5030883;28;19928;-79
2023/07/24 10:51:37;;;;;;;;;;;;;;;37.68;25.78;99480.88;5050548;28;19919;-76
2023/07/24 10:54:03;;;;;;;;;;;;;;;37.77;23.27;99479.53;5048842;28;19913;-76
2023/07/24 10:56:28;;;;;;;;;;;;;;;37.72;26.15;99468.00;5043911;28;19916;-76
2023/07/24 10:58:54;;;;;;;;;;;;;;;37.93;26.29;99468.47;5030527;28;19923;-76
2023/07/24 11:01:19;;;;;;;;;;;;;;;38.12;24.03;99467.66;5050306;28;19917;-75
2023/07/24 11:03:44;;;;;;;;;;;;;;;38.21;27.13;99461.97;5033062;28;20301;-76
2023/07/24 11:06:17;;;;;;;;;;;;;;;38.36;26.02;99461.88;5050733;28;19923;-77
2023/07/24 11:08:50;;;;;;;;;;;;;;;38.65;24.57;99454.94;5050739;28;20433;-77
2023/07/24 11:11:15;;;;;;;;;;;;;;;38.83;25.01;99449.72;5030877;28;19924;-77
2023/07/24 11:13:41;;;;;;;;;;;;;;;38.98;26.05;99454.31;5049922;28;19916;-78
2023/07/24 11:16:07;;;;;;;;;;;;;;;39.09;24.97;99447.03;5035897;28;19963;-77
2023/07/24 11:18:32;;;;;;;;;;;;;;;39.29;25.17;99450.47;5054417;28;19920;-77
2023/07/24 11:20:57;;;;;;;;;;;;;;;39.13;25.20;99441.53;5052898;28;20308;-78
2023/07/24 11:23:23;;;;;;;;;;;;;;;39.13;25.26;99440.75;5039463;28;19912;-79
2023/07/24 11:25:53;;;;;;;;;;;;;;;39.23;26.36;99438.16;5053803;28;19912;-76
2023/07/24 11:28:18;;;;;;;;;;;;;;;39.20;23.62;99435.34;5052801;28;20294;-78
2023/07/24 11:30:43;;;;;;;;;;;;;;;39.10;23.22;99428.47;5055613;28;20011;-76
2023/07/24 11:33:10;;;;;;;;;;;;;;;39.11;24.42;99423.75;5058417;28;19913;-76
2023/07/24 11:35:36;;;;;;;;;;;;;;;39.25;24.17;99419.25;5067862;28;20308;-78
2023/07/24 11:38:01;;;;;;;;;;;;;;;39.31;25.24;99420.50;5055599;28;19987;-79
2023/07/24 11:40:31;;;;;;;;;;;;;;;39.48;21.58;99413.66;5051669;28;19942;-77
2023/07/24 11:42:56;;;;;;;;;;;;;;;39.52;24.59;99413.72;5053674;28;19916;-77
2023/07/24 11:45:21;;;;;;;;;;;;;;;39.71;22.70;99411.59;5042741;28;20009;-75
2023/07/24 11:47:48;;;;;;;;;;;;;;;39.90;22.70;99407.09;5050054;28;19913;-77
2023/07/24 11:50:14;;;;;;;;;;;;;;;40.13;22.92;99405.00;5050634;28;20387;-76
2023/07/24 11:52:44;;;;;;;;;;;;;;;40.00;23.77;99410.00;5053137;28;19913;-76
2023/07/24 11:55:13;;;;;;;;;;;;;;;39.72;23.46;99393.84;5052899;28;19915;-77
2023/07/24 11:57:38;;;;;;;;;;;;;;;39.79;23.58;99395.09;5039725;28;19912;-78
2023/07/24 12:00:05;;;;;;;;;;;;;;;39.86;23.83;99397.94;5061091;28;20353;-79
2023/07/24 12:02:31;;;;;;;;;;;;;;;39.81;23.40;99387.22;5052241;28;19920;-77
2023/07/24 12:05:00;;;;;;;;;;;;;;;39.58;23.35;99390.13;5052849;28;19915;-77
2023/07/24 12:07:28;;;;;;;;;;;;;;;39.53;22.61;99384.94;5053107;28;19927;-77
2023/07/24 12:09:54;;;;;;;;;;;;;;;39.82;21.92;99389.63;5052895;28;19916;-78
2023/07/24 12:12:19;;;;;;;;;;;;;;;40.02;22.13;99381.97;5050205;28;20399;-77
2023/07/24 12:14:45;;;;;;;;;;;;;;;40.05;23.08;99381.19;5053829;28;19908;-77
2023/07/24 12:17:14;;;;;;;;;;;;;;;40.28;21.04;99376.31;5052099;28;19970;-79
2023/07/24 12:19:39;;;;;;;;;;;;;;;40.45;21.72;99372.16;5050690;28;19951;-78
2023/07/24 12:22:04;;;;;;;;;;;;;;;40.63;20.30;99366.75;5049343;28;19996;-77
2023/07/24 12:24:30;;;;;;;;;;;;;;;40.79;21.86;99367.28;5051562;28;20372;-78
2023/07/24 12:26:55;;;;;;;;;;;;;;;40.76;22.45;99362.50;5053085;28;19909;-76
2023/07/24 12:29:20;;;;;;;;;;;;;;;40.59;21.57;99354.88;5052805;28;19969;-78
2023/07/24 12:31:45;;;;;;;;;;;;;;;40.61;21.38;99352.50;5052426;28;19924;-76
2023/07/24 12:34:11;;;;;;;;;;;;;;;40.65;22.26;99356.09;5052577;28;19908;-78
2023/07/24 12:36:36;;;;;;;;;;;;;;;40.71;20.82;99353.75;5035135;28;19919;-77
2023/07/24 12:39:01;;;;;;;;;;;;;;;40.86;20.78;99355.47;5045674;28;19909;-78
2023/07/24 12:41:27;;;;;;;;;;;;;;;41.00;21.14;99354.81;5045011;28;19913;-78